CYNL

METAR CYNL 131800Z AUTO 32005KT 6SM OVC003 M10/M12 A2993 RMK AO1 SLP187
METAR
LOCATION
CYNL
DATE - TIME
131800Z
WIND
320 TRUE @ 5 KNOTS
VISIBILITY
6SM
RUNWAY VISUAL RANGE
NOT REPORTED
WEATHER
CLOUDINESS
OVC003
TEMP / DEWPOINT
-10 ºC / -12 ºC
ALTIMETER
29.93 in. Hg
RECENT WEATHER
NOT REPORTED
WIND SHEAR
NOT REPORTED
REMARKS
RMK AO1 SLP187
SEA LEVEL PRESSURE: hPa

CYNL

SPECI CYNL 131732Z AUTO 32004KT 4SM OVC003 M10/M12 A2993 RMK AO1 SLP185
SPECI
LOCATION
CYNL
DATE - TIME
131732Z
WIND
320 TRUE @ 4 KNOTS
VISIBILITY
4SM
RUNWAY VISUAL RANGE
NOT REPORTED
WEATHER
CLOUDINESS
OVC003
TEMP / DEWPOINT
-10 ºC / -12 ºC
ALTIMETER
29.93 in. Hg
RECENT WEATHER
NOT REPORTED
WIND SHEAR
NOT REPORTED
REMARKS
RMK AO1 SLP185
SEA LEVEL PRESSURE: hPa

CYNL

SPECI CYNL 131731Z AUTO 32004KT 2 1/2SM OVC003 M10/M12 A2993 RMK AO1 SLP185
SPECI
LOCATION
CYNL
DATE - TIME
131731Z
WIND
320 TRUE @ 4 KNOTS
VISIBILITY
2 1/2SM
RUNWAY VISUAL RANGE
NOT REPORTED
WEATHER
CLOUDINESS
OVC003
TEMP / DEWPOINT
-10 ºC / -12 ºC
ALTIMETER
29.93 in. Hg
RECENT WEATHER
NOT REPORTED
WIND SHEAR
NOT REPORTED
REMARKS
RMK AO1 SLP185
SEA LEVEL PRESSURE: hPa

Your time UTC time
 
 
Weather data provided by AXYS Technologies Inc., www.axystechnologies.com
 
Station History